Time;durP1;ratioP1;P1;durP2;ratioP2;P2;SDS_P1;SDS_P2;PMS_P1;PMS_P2;Temp;Humidity;BMP_temperature;BMP_pressure;BME280_temperature;BME280_humidity;BME280_pressure;Samples;Min_cycle;Max_cycle;Signal;HPM_P1;HPM_P2
2022/03/25 00:00:02;;;;;;;189.93;60.58;;;;;;;;;;6267894;28;20068;-65
2022/03/25 00:03:05;;;;;;;185.50;60.67;;;;;;;;;;6268335;28;20041;-67
2022/03/25 00:06:05;;;;;;;187.65;60.08;;;;;;;;;;6267169;28;20805;-65
2022/03/25 00:09:06;;;;;;;195.68;62.28;;;;;;;;;;6271634;28;20051;-65
2022/03/25 00:12:07;;;;;;;204.98;63.00;;;;;;;;;;6263093;28;20500;-64
2022/03/25 00:15:08;;;;;;;205.02;64.53;;;;;;;;;;6265161;28;20502;-63
2022/03/25 00:18:08;;;;;;;189.73;58.85;;;;;;;;;;6266269;28;20056;-64
2022/03/25 00:21:10;;;;;;;205.38;59.47;;;;;;;;;;6272935;28;20486;-59
2022/03/25 00:24:10;;;;;;;224.87;68.17;;;;;;;;;;6269835;28;20048;-65
2022/03/25 00:27:11;;;;;;;191.32;57.95;;;;;;;;;;6265473;28;20051;-60
2022/03/25 00:30:12;;;;;;;202.07;62.50;;;;;;;;;;6263389;28;20909;-63
2022/03/25 00:33:14;;;;;;;187.48;58.33;;;;;;;;;;6265252;28;20069;-65
2022/03/25 00:36:17;;;;;;;181.45;57.35;;;;;;;;;;6264815;28;20140;-67
2022/03/25 00:39:18;;;;;;;172.40;56.75;;;;;;;;;;6273319;28;20055;-68
2022/03/25 00:42:19;;;;;;;185.77;58.97;;;;;;;;;;6266444;28;20089;-65
2022/03/25 00:45:21;;;;;;;193.60;60.90;;;;;;;;;;6246013;28;20045;-64
2022/03/25 00:48:21;;;;;;;181.98;59.08;;;;;;;;;;6249252;28;20048;-66
2022/03/25 00:51:22;;;;;;;151.90;51.50;;;;;;;;;;6265158;28;20045;-61
2022/03/25 00:54:23;;;;;;;186.98;57.35;;;;;;;;;;6266121;28;20492;-69
2022/03/25 00:57:23;;;;;;;156.23;49.38;;;;;;;;;;6270324;28;20045;-65
2022/03/25 01:00:24;;;;;;;165.18;49.28;;;;;;;;;;6267939;28;20139;-63
2022/03/25 01:03:25;;;;;;;180.35;53.50;;;;;;;;;;6270484;28;20130;-63
2022/03/25 01:06:26;;;;;;;165.32;52.65;;;;;;;;;;6267685;28;20128;-67
2022/03/25 01:09:26;;;;;;;174.73;51.25;;;;;;;;;;6268576;28;20136;-68
2022/03/25 01:12:27;;;;;;;159.75;49.90;;;;;;;;;;6271465;28;20049;-55
2022/03/25 01:15:30;;;;;;;161.23;48.85;;;;;;;;;;6269644;28;20052;-59
2022/03/25 01:18:31;;;;;;;132.70;43.13;;;;;;;;;;6263680;28;20052;-71
2022/03/25 01:21:32;;;;;;;183.63;48.92;;;;;;;;;;6268673;28;20056;-67
2022/03/25 01:24:33;;;;;;;142.35;41.58;;;;;;;;;;6267477;28;20681;-58
2022/03/25 01:27:33;;;;;;;207.98;53.50;;;;;;;;;;6267509;28;20049;-55
2022/03/25 01:30:35;;;;;;;175.88;50.72;;;;;;;;;;6271542;28;20055;-55
2022/03/25 01:33:37;;;;;;;176.32;48.55;;;;;;;;;;6271453;28;20488;-55
2022/03/25 01:36:38;;;;;;;172.05;47.42;;;;;;;;;;6268775;28;20054;-62
2022/03/25 01:39:38;;;;;;;140.95;44.72;;;;;;;;;;6270586;28;20755;-58
2022/03/25 01:42:41;;;;;;;141.35;44.13;;;;;;;;;;6271840;28;20057;-56
2022/03/25 01:45:42;;;;;;;122.60;38.92;;;;;;;;;;6274344;28;20110;-56
2022/03/25 01:48:43;;;;;;;135.57;41.03;;;;;;;;;;6273923;28;20081;-57
2022/03/25 01:51:44;;;;;;;155.43;45.05;;;;;;;;;;6285185;28;20060;-58
2022/03/25 01:54:45;;;;;;;121.53;39.58;;;;;;;;;;6275228;28;20040;-60
2022/03/25 01:57:45;;;;;;;114.53;37.97;;;;;;;;;;6276446;28;20052;-60
2022/03/25 02:00:47;;;;;;;122.20;38.00;;;;;;;;;;6270613;28;20120;-61
2022/03/25 02:03:47;;;;;;;124.57;38.40;;;;;;;;;;6272157;28;20092;-57
2022/03/25 02:06:48;;;;;;;141.98;44.15;;;;;;;;;;6269752;28;20048;-59
2022/03/25 02:09:49;;;;;;;134.43;41.13;;;;;;;;;;6269985;28;20068;-65
2022/03/25 02:12:50;;;;;;;133.10;46.13;;;;;;;;;;6270813;28;20043;-60
2022/03/25 02:15:51;;;;;;;140.60;42.83;;;;;;;;;;6271766;28;20506;-62
2022/03/25 02:18:53;;;;;;;141.40;46.03;;;;;;;;;;6267200;28;20127;-55
2022/03/25 02:21:53;;;;;;;132.88;42.67;;;;;;;;;;6269275;28;20499;-64
2022/03/25 02:24:54;;;;;;;144.63;43.78;;;;;;;;;;6272249;28;20053;-66
2022/03/25 02:27:58;;;;;;;141.07;42.63;;;;;;;;;;6269259;28;20085;-67
2022/03/25 02:30:59;;;;;;;123.75;42.03;;;;;;;;;;6269943;28;20044;-57
2022/03/25 02:34:01;;;;;;;137.38;42.67;;;;;;;;;;6270713;28;20625;-59
2022/03/25 02:37:02;;;;;;;;;;;;;;;;;;6272464;28;20056;-57
2022/03/25 02:40:03;;;;;;;139.68;43.50;;;;;;;;;;6271517;28;20294;-54
2022/03/25 02:43:05;;;;;;;122.67;40.47;;;;;;;;;;6269245;28;20062;-61
2022/03/25 02:46:06;;;;;;;121.40;44.03;;;;;;;;;;6267022;28;20049;-58
2022/03/25 02:49:07;;;;;;;131.52;43.53;;;;;;;;;;6265068;28;20044;-57
2022/03/25 02:52:07;;;;;;;137.52;44.97;;;;;;;;;;6266560;28;20068;-60
2022/03/25 02:55:09;;;;;;;130.82;43.40;;;;;;;;;;6272695;28;20153;-55
2022/03/25 02:58:11;;;;;;;123.43;42.78;;;;;;;;;;6268908;28;20076;-61
2022/03/25 03:01:13;;;;;;;110.20;38.65;;;;;;;;;;6269492;28;20835;-59
2022/03/25 03:04:13;;;;;;;114.60;39.75;;;;;;;;;;6273680;28;20218;-57
2022/03/25 03:07:14;;;;;;;119.00;40.28;;;;;;;;;;6269769;28;20098;-58
2022/03/25 03:10:15;;;;;;;121.88;41.65;;;;;;;;;;6268225;28;20048;-61
2022/03/25 03:13:16;;;;;;;120.55;40.85;;;;;;;;;;6269296;28;20090;-63
2022/03/25 03:16:16;;;;;;;119.18;40.22;;;;;;;;;;6277983;28;20513;-63
2022/03/25 03:19:17;;;;;;;113.57;39.88;;;;;;;;;;6269580;28;20135;-64
2022/03/25 03:22:18;;;;;;;115.72;39.75;;;;;;;;;;6270584;28;20510;-64
2022/03/25 03:25:18;;;;;;;110.95;39.05;;;;;;;;;;6269408;28;20054;-61
2022/03/25 03:28:19;;;;;;;120.20;40.88;;;;;;;;;;6264315;28;20045;-59
2022/03/25 03:31:19;;;;;;;116.90;41.42;;;;;;;;;;6272203;28;20127;-65
2022/03/25 03:34:20;;;;;;;113.50;41.03;;;;;;;;;;6268407;28;20049;-62
2022/03/25 03:37:22;;;;;;;110.05;39.58;;;;;;;;;;6270022;28;20068;-61
2022/03/25 03:40:23;;;;;;;109.45;38.80;;;;;;;;;;6269282;28;20498;-58
2022/03/25 03:43:24;;;;;;;109.20;39.78;;;;;;;;;;6267261;28;20114;-65
2022/03/25 03:46:24;;;;;;;117.53;40.83;;;;;;;;;;6268453;28;20057;-63
2022/03/25 03:49:25;;;;;;;116.20;41.25;;;;;;;;;;6264200;28;20045;-58
2022/03/25 03:52:26;;;;;;;119.82;41.10;;;;;;;;;;6272755;28;20396;-58
2022/03/25 03:55:26;;;;;;;107.93;38.42;;;;;;;;;;6271266;28;20464;-59
2022/03/25 03:58:27;;;;;;;108.32;39.17;;;;;;;;;;6269872;28;20081;-60
2022/03/25 04:01:27;;;;;;;111.72;37.90;;;;;;;;;;6262614;28;20139;-62
2022/03/25 04:04:28;;;;;;;104.10;36.70;;;;;;;;;;6264828;28;20051;-59
2022/03/25 04:07:29;;;;;;;121.82;41.80;;;;;;;;;;6278713;28;20049;-60
2022/03/25 04:10:30;;;;;;;130.68;45.10;;;;;;;;;;6273655;28;20045;-59
2022/03/25 04:13:31;;;;;;;126.55;42.80;;;;;;;;;;6271631;28;21776;-60
2022/03/25 04:16:31;;;;;;;126.22;42.20;;;;;;;;;;6264872;28;20060;-64
2022/03/25 04:19:32;;;;;;;120.00;43.35;;;;;;;;;;6264727;28;20826;-61
2022/03/25 04:22:33;;;;;;;119.40;40.88;;;;;;;;;;6269564;28;20435;-63
2022/03/25 04:25:33;;;;;;;125.28;44.67;;;;;;;;;;6266889;28;20474;-59
2022/03/25 04:28:34;;;;;;;119.15;42.40;;;;;;;;;;6268059;28;20040;-62
2022/03/25 04:31:35;;;;;;;121.80;43.53;;;;;;;;;;6268055;28;20048;-68
2022/03/25 04:34:35;;;;;;;121.22;42.88;;;;;;;;;;6265508;28;20414;-56
2022/03/25 04:37:36;;;;;;;118.55;42.30;;;;;;;;;;6269667;28;20132;-56
2022/03/25 04:40:37;;;;;;;118.20;41.40;;;;;;;;;;6267450;28;20041;-54
2022/03/25 04:43:38;;;;;;;122.65;43.65;;;;;;;;;;6267404;28;20478;-57
2022/03/25 04:46:40;;;;;;;112.97;39.27;;;;;;;;;;6264791;28;20373;-63
2022/03/25 04:49:40;;;;;;;105.60;39.88;;;;;;;;;;6261831;28;20041;-66
2022/03/25 04:52:41;;;;;;;120.57;41.75;;;;;;;;;;6266006;28;20045;-59
2022/03/25 04:55:41;;;;;;;129.57;45.58;;;;;;;;;;6266223;28;20073;-63
2022/03/25 04:58:42;;;;;;;123.88;44.55;;;;;;;;;;6263768;28;20049;-62
2022/03/25 05:01:42;;;;;;;106.05;36.13;;;;;;;;;;6262791;28;20083;-60
2022/03/25 05:04:43;;;;;;;94.53;35.08;;;;;;;;;;6267733;28;20052;-59
2022/03/25 05:07:45;;;;;;;97.07;34.20;;;;;;;;;;6270369;28;20864;-62
2022/03/25 05:10:46;;;;;;;108.97;38.83;;;;;;;;;;6272474;28;20052;-66
2022/03/25 05:13:47;;;;;;;105.20;37.35;;;;;;;;;;6276168;28;20135;-65
2022/03/25 05:16:52;;;;;;;99.50;38.60;;;;;;;;;;6272834;28;20048;-62
2022/03/25 05:19:54;;;;;;;107.82;40.90;;;;;;;;;;6268358;28;20044;-53
2022/03/25 05:22:54;;;;;;;114.07;40.27;;;;;;;;;;6267574;28;20094;-60
2022/03/25 05:25:55;;;;;;;112.38;40.38;;;;;;;;;;6271059;28;20329;-66
2022/03/25 05:28:56;;;;;;;111.70;42.85;;;;;;;;;;6272477;28;20045;-57
2022/03/25 05:31:56;;;;;;;117.43;43.53;;;;;;;;;;6269100;28;20045;-58
2022/03/25 05:34:57;;;;;;;114.60;41.03;;;;;;;;;;6270410;28;20088;-60
2022/03/25 05:37:58;;;;;;;111.80;41.72;;;;;;;;;;6275501;28;20086;-67
2022/03/25 05:40:59;;;;;;;110.97;43.40;;;;;;;;;;6274804;28;20052;-58
2022/03/25 05:43:59;;;;;;;124.82;44.20;;;;;;;;;;6273557;28;20120;-67
2022/03/25 05:47:00;;;;;;;127.43;47.20;;;;;;;;;;6278286;28;20064;-61
2022/03/25 05:50:02;;;;;;;123.18;46.90;;;;;;;;;;6274141;28;20053;-64
2022/03/25 05:53:03;;;;;;;127.65;47.60;;;;;;;;;;6278199;28;20049;-62
2022/03/25 05:56:05;;;;;;;130.25;47.90;;;;;;;;;;6276089;28;20037;-59
2022/03/25 05:59:06;;;;;;;119.25;44.60;;;;;;;;;;6274259;28;20083;-55
2022/03/25 06:02:08;;;;;;;124.88;45.70;;;;;;;;;;6268556;28;20426;-57
2022/03/25 06:05:10;;;;;;;130.82;45.75;;;;;;;;;;6257159;28;20367;-57
2022/03/25 06:08:10;;;;;;;134.15;45.35;;;;;;;;;;6270427;28;20056;-59
2022/03/25 06:11:11;;;;;;;137.63;47.38;;;;;;;;;;6274647;28;20045;-57
2022/03/25 06:14:12;;;;;;;143.65;50.58;;;;;;;;;;6277675;28;20446;-58
2022/03/25 06:17:13;;;;;;;149.45;54.00;;;;;;;;;;6271423;28;20055;-57
2022/03/25 06:20:17;;;;;;;152.18;58.17;;;;;;;;;;6271067;28;20391;-60
2022/03/25 06:23:18;;;;;;;220.63;80.95;;;;;;;;;;6283096;28;20044;-65
2022/03/25 06:26:19;;;;;;;181.45;69.30;;;;;;;;;;6295875;28;20087;-57
2022/03/25 06:29:19;;;;;;;180.70;65.50;;;;;;;;;;6271648;28;20103;-62
2022/03/25 06:32:20;;;;;;;176.85;67.80;;;;;;;;;;6269840;28;20067;-60
2022/03/25 06:35:21;;;;;;;163.55;64.03;;;;;;;;;;6270586;28;20037;-57
2022/03/25 06:38:21;;;;;;;166.82;63.75;;;;;;;;;;6260650;28;20136;-60
2022/03/25 06:41:22;;;;;;;170.60;64.15;;;;;;;;;;6264040;28;20099;-57
2022/03/25 06:44:23;;;;;;;165.88;63.00;;;;;;;;;;6267525;28;20140;-60
2022/03/25 06:47:23;;;;;;;160.73;60.78;;;;;;;;;;6261925;28;20045;-55
2022/03/25 06:50:24;;;;;;;159.23;59.33;;;;;;;;;;6275350;28;20125;-57
2022/03/25 06:53:26;;;;;;;159.73;62.63;;;;;;;;;;6276260;28;20049;-62
2022/03/25 06:56:27;;;;;;;160.50;59.70;;;;;;;;;;6268121;28;20051;-62
2022/03/25 06:59:28;;;;;;;154.13;60.42;;;;;;;;;;6266221;28;20049;-57
2022/03/25 07:02:29;;;;;;;155.15;57.83;;;;;;;;;;6268517;28;20087;-61
2022/03/25 07:05:30;;;;;;;156.13;58.22;;;;;;;;;;6268584;28;20465;-59
2022/03/25 07:08:31;;;;;;;151.63;57.25;;;;;;;;;;6267256;28;20157;-60
2022/03/25 07:11:32;;;;;;;157.02;61.13;;;;;;;;;;6268392;28;20049;-56
2022/03/25 07:14:33;;;;;;;150.25;58.50;;;;;;;;;;6265382;28;20128;-60
2022/03/25 07:17:34;;;;;;;150.18;56.10;;;;;;;;;;6266066;28;20045;-59
2022/03/25 07:20:35;;;;;;;128.18;52.75;;;;;;;;;;6267570;28;20487;-57
2022/03/25 07:23:36;;;;;;;151.40;56.72;;;;;;;;;;6267611;28;20048;-55
2022/03/25 07:26:37;;;;;;;98.68;38.28;;;;;;;;;;6266632;28;20415;-64
2022/03/25 07:29:37;;;;;;;135.90;43.08;;;;;;;;;;6271465;28;20075;-64
2022/03/25 07:32:38;;;;;;;100.15;37.95;;;;;;;;;;6267318;28;20041;-63
2022/03/25 07:35:39;;;;;;;68.47;26.42;;;;;;;;;;6269432;28;20071;-60
2022/03/25 07:38:39;;;;;;;63.28;24.95;;;;;;;;;;6268837;28;20539;-58
2022/03/25 07:41:40;;;;;;;62.22;23.52;;;;;;;;;;6269685;28;20057;-56
2022/03/25 07:44:41;;;;;;;71.07;26.13;;;;;;;;;;6270789;28;20044;-59
2022/03/25 07:47:47;;;;;;;75.03;28.20;;;;;;;;;;6268949;28;20071;-55
2022/03/25 07:50:48;;;;;;;76.65;28.70;;;;;;;;;;6272623;28;20866;-55
2022/03/25 07:53:48;;;;;;;80.38;29.00;;;;;;;;;;6271506;28;20143;-57
2022/03/25 07:56:49;;;;;;;68.63;23.85;;;;;;;;;;6272301;28;20074;-58
2022/03/25 07:59:50;;;;;;;72.47;27.10;;;;;;;;;;6268495;28;20768;-58
2022/03/25 08:02:52;;;;;;;74.65;28.00;;;;;;;;;;6270570;28;20151;-62
2022/03/25 08:05:54;;;;;;;71.10;25.60;;;;;;;;;;6266549;28;20068;-62
2022/03/25 08:08:55;;;;;;;59.25;22.40;;;;;;;;;;6268473;28;20055;-62
2022/03/25 08:11:55;;;;;;;65.38;26.52;;;;;;;;;;6273494;28;20519;-62
2022/03/25 08:14:56;;;;;;;71.38;28.80;;;;;;;;;;6265783;28;20036;-60
2022/03/25 08:18:02;;;;;;;75.60;28.45;;;;;;;;;;6268623;28;20554;-60
2022/03/25 08:21:02;;;;;;;79.70;31.58;;;;;;;;;;6269069;28;20060;-64
2022/03/25 08:30:43;;;;;;;86.72;31.50;;;;;;;;;;6262502;28;20469;-63
2022/03/25 08:33:44;;;;;;;80.50;30.67;;;;;;;;;;6262945;28;20183;-60
2022/03/25 08:36:47;;;;;;;77.78;31.02;;;;;;;;;;6265480;28;20051;-63
2022/03/25 08:39:47;;;;;;;85.07;35.33;;;;;;;;;;6278381;28;20499;-57
2022/03/25 08:42:48;;;;;;;98.72;36.97;;;;;;;;;;6266203;28;20060;-56
2022/03/25 08:45:49;;;;;;;104.25;38.75;;;;;;;;;;6262010;28;20178;-64
2022/03/25 08:48:49;;;;;;;95.75;37.47;;;;;;;;;;6264915;28;20416;-60
2022/03/25 08:51:50;;;;;;;90.50;34.78;;;;;;;;;;6268344;28;20437;-64
2022/03/25 08:54:52;;;;;;;85.20;34.97;;;;;;;;;;6272819;28;20518;-58
2022/03/25 08:57:52;;;;;;;92.47;35.28;;;;;;;;;;6268482;28;20055;-64
2022/03/25 09:00:53;;;;;;;97.50;36.08;;;;;;;;;;6266409;28;20168;-62
2022/03/25 09:03:54;;;;;;;91.40;36.80;;;;;;;;;;6270814;28;20841;-60
2022/03/25 09:06:54;;;;;;;63.08;25.42;;;;;;;;;;6267149;28;20124;-63
2022/03/25 09:09:55;;;;;;;78.30;25.85;;;;;;;;;;6263609;28;20136;-64
2022/03/25 09:12:56;;;;;;;67.43;23.75;;;;;;;;;;6281262;28;20118;-63
2022/03/25 09:15:56;;;;;;;54.70;23.15;;;;;;;;;;6272758;28;20048;-61
2022/03/25 09:18:57;;;;;;;54.70;18.65;;;;;;;;;;6267381;28;20396;-59
2022/03/25 09:21:58;;;;;;;50.42;20.05;;;;;;;;;;6268615;28;20532;-62
2022/03/25 09:24:59;;;;;;;46.17;18.92;;;;;;;;;;6267816;28;20044;-60
2022/03/25 09:27:59;;;;;;;52.70;20.48;;;;;;;;;;6268420;28;20037;-58
2022/03/25 09:31:00;;;;;;;53.42;20.25;;;;;;;;;;6266320;28;20040;-65
2022/03/25 09:37:21;;;;;;;55.28;21.08;;;;;;;;;;6263172;28;20115;-65
2022/03/25 09:40:25;;;;;;;54.78;21.63;;;;;;;;;;6263465;28;20134;-65
2022/03/25 09:43:26;;;;;;;58.65;20.25;;;;;;;;;;6262728;28;20053;-63
2022/03/25 09:46:26;;;;;;;60.15;20.88;;;;;;;;;;6263936;28;20053;-64
2022/03/25 09:49:27;;;;;;;55.25;20.75;;;;;;;;;;6268287;28;20044;-64
2022/03/25 09:52:30;;;;;;;56.65;22.60;;;;;;;;;;6269502;28;20056;-64
2022/03/25 09:55:31;;;;;;;55.13;22.30;;;;;;;;;;6269951;28;20548;-59
2022/03/25 09:58:32;;;;;;;61.08;24.45;;;;;;;;;;6268231;28;20041;-65
2022/03/25 10:01:33;;;;;;;59.25;23.80;;;;;;;;;;6267132;28;20049;-65
2022/03/25 10:04:44;;;;;;;64.15;26.77;;;;;;;;;;6269139;28;20048;-58
2022/03/25 10:07:50;;;;;;;57.17;24.73;;;;;;;;;;6268966;28;20041;-59
2022/03/25 10:10:51;;;;;;;58.78;24.23;;;;;;;;;;6265820;28;20094;-63
2022/03/25 10:14:14;;;;;;;56.15;23.50;;;;;;;;;;6266775;28;20045;-63
2022/03/25 10:17:15;;;;;;;56.15;21.00;;;;;;;;;;6269653;28;20045;-66
2022/03/25 10:20:17;;;;;;;53.53;20.55;;;;;;;;;;6269724;28;20495;-67
2022/03/25 10:23:19;;;;;;;51.83;20.80;;;;;;;;;;6264621;28;20072;-59
2022/03/25 10:26:34;;;;;;;58.55;20.67;;;;;;;;;;6269157;28;20488;-63
2022/03/25 10:29:35;;;;;;;55.47;18.67;;;;;;;;;;6269161;28;20056;-66
2022/03/25 10:32:39;;;;;;;49.35;17.67;;;;;;;;;;6272755;28;20072;-61
2022/03/25 10:36:00;;;;;;;49.55;18.65;;;;;;;;;;6275736;28;20143;-66
2022/03/25 10:39:05;;;;;;;46.60;16.77;;;;;;;;;;6267217;28;20033;-64
2022/03/25 10:42:08;;;;;;;49.33;18.77;;;;;;;;;;6271257;28;20088;-62
2022/03/25 10:45:26;;;;;;;47.88;16.83;;;;;;;;;;6273479;28;20056;-63
2022/03/25 10:48:26;;;;;;;49.67;18.45;;;;;;;;;;6272910;28;20053;-62
2022/03/25 10:51:27;;;;;;;47.45;18.48;;;;;;;;;;6275639;28;20478;-60
2022/03/25 10:54:28;;;;;;;48.00;18.60;;;;;;;;;;6273955;28;20041;-62
2022/03/25 10:57:50;;;;;;;68.15;18.02;;;;;;;;;;6264546;28;20041;-65
2022/03/25 11:00:51;;;;;;;43.83;18.23;;;;;;;;;;6265166;28;20052;-66
2022/03/25 11:03:52;;;;;;;43.40;17.00;;;;;;;;;;6267284;28;20052;-66
2022/03/25 11:06:54;;;;;;;45.75;16.65;;;;;;;;;;6268250;28;20128;-66
2022/03/25 11:09:55;;;;;;;;;;;;;;;;;;6267604;28;20044;-66
2022/03/25 11:12:56;;;;;;;43.97;17.00;;;;;;;;;;6266646;28;19935;-65
2022/03/25 11:15:59;;;;;;;42.17;17.50;;;;;;;;;;6267425;28;20064;-67
2022/03/25 11:19:00;;;;;;;46.45;17.80;;;;;;;;;;6265417;28;20047;-66
2022/03/25 11:22:03;;;;;;;48.85;17.85;;;;;;;;;;6267957;28;20049;-65
2022/03/25 11:25:05;;;;;;;42.08;17.00;;;;;;;;;;6266596;28;20128;-67
2022/03/25 11:28:09;;;;;;;74.82;28.50;;;;;;;;;;6265600;28;20123;-66
2022/03/25 11:31:09;;;;;;;43.85;16.25;;;;;;;;;;6267710;28;20077;-67
2022/03/25 11:34:10;;;;;;;39.88;16.20;;;;;;;;;;6266306;28;20404;-64
2022/03/25 11:37:28;;;;;;;42.42;16.08;;;;;;;;;;6267239;28;20049;-67
2022/03/25 11:40:29;;;;;;;46.65;15.65;;;;;;;;;;6263876;28;20049;-67
2022/03/25 11:43:30;;;;;;;44.67;16.25;;;;;;;;;;6272189;28;20081;-67
2022/03/25 11:46:30;;;;;;;43.90;16.48;;;;;;;;;;6271511;28;20048;-67
2022/03/25 11:49:41;;;;;;;44.45;16.30;;;;;;;;;;6270556;28;20168;-66
2022/03/25 11:52:42;;;;;;;41.55;16.30;;;;;;;;;;6268831;28;20036;-63
2022/03/25 11:56:03;;;;;;;48.20;16.13;;;;;;;;;;6274364;28;20590;-64
2022/03/25 11:59:05;;;;;;;47.83;17.50;;;;;;;;;;6272681;28;20045;-64
2022/03/25 12:02:22;;;;;;;;;;;;;;;;;;6269676;28;20048;-66
2022/03/25 12:05:26;;;;;;;43.22;16.55;;;;;;;;;;6267784;28;19928;-67
2022/03/25 12:08:35;;;;;;;43.38;17.08;;;;;;;;;;6269669;28;20522;-66
2022/03/25 12:11:51;;;;;;;53.10;19.20;;;;;;;;;;6271355;28;20072;-67
2022/03/25 12:15:11;;;;;;;53.50;19.25;;;;;;;;;;6263715;28;20053;-68
2022/03/25 12:18:47;;;;;;;45.67;16.85;;;;;;;;;;6268768;28;20199;-67
2022/03/25 12:21:47;;;;;;;51.28;17.65;;;;;;;;;;6265007;28;20056;-66
2022/03/25 12:25:04;;;;;;;50.33;17.65;;;;;;;;;;6271888;28;20048;-67
2022/03/25 12:28:05;;;;;;;42.38;17.25;;;;;;;;;;6267192;28;20048;-66
2022/03/25 12:31:06;;;;;;;42.95;15.60;;;;;;;;;;6265669;28;20474;-66
2022/03/25 12:34:06;;;;;;;42.42;16.23;;;;;;;;;;6265172;28;20136;-67
2022/03/25 12:37:15;;;;;;;44.20;16.30;;;;;;;;;;6261642;28;20457;-66
2022/03/25 12:40:19;;;;;;;41.25;15.98;;;;;;;;;;6265806;28;20073;-65
2022/03/25 12:43:28;;;;;;;43.22;16.58;;;;;;;;;;6267184;28;20794;-65
2022/03/25 12:46:29;;;;;;;40.45;16.92;;;;;;;;;;6266367;28;20477;-68
2022/03/25 12:49:33;;;;;;;43.92;17.30;;;;;;;;;;6267146;28;20123;-66
2022/03/25 12:52:34;;;;;;;50.05;17.85;;;;;;;;;;6266117;28;20147;-66
2022/03/25 12:55:35;;;;;;;48.08;19.15;;;;;;;;;;6269237;28;20055;-66
2022/03/25 12:58:40;;;;;;;49.33;18.90;;;;;;;;;;6268677;28;20486;-64
2022/03/25 13:01:45;;;;;;;46.13;18.80;;;;;;;;;;6272322;28;20133;-67
2022/03/25 13:04:46;;;;;;;51.45;19.58;;;;;;;;;;6263538;28;20048;-61
2022/03/25 13:07:49;;;;;;;52.78;19.67;;;;;;;;;;6268168;28;20491;-67
2022/03/25 13:10:57;;;;;;;50.22;19.40;;;;;;;;;;6269128;28;20521;-65
2022/03/25 13:13:58;;;;;;;53.33;18.35;;;;;;;;;;6268327;28;20128;-66
2022/03/25 13:16:58;;;;;;;57.22;19.60;;;;;;;;;;6265890;28;20425;-62
2022/03/25 13:19:59;;;;;;;45.78;19.02;;;;;;;;;;6268708;28;20525;-68
2022/03/25 13:23:06;;;;;;;49.25;19.63;;;;;;;;;;6270526;28;20445;-66
2022/03/25 13:26:08;;;;;;;52.05;18.85;;;;;;;;;;6271943;28;20044;-67
2022/03/25 13:29:09;;;;;;;;;;;;;;;;;;6267363;28;20468;-68
2022/03/25 13:32:11;;;;;;;47.60;18.48;;;;;;;;;;6269577;28;20031;-60
2022/03/25 13:35:13;;;;;;;;;;;;;;;;;;6269407;28;20598;-66
2022/03/25 13:38:17;;;;;;;46.17;18.20;;;;;;;;;;6268647;28;19983;-64
2022/03/25 13:41:23;;;;;;;46.58;19.35;;;;;;;;;;6266086;28;20443;-66
2022/03/25 13:44:24;;;;;;;44.08;17.30;;;;;;;;;;6271344;28;20057;-62
2022/03/25 13:47:25;;;;;;;46.67;16.95;;;;;;;;;;6273872;28;20110;-60
2022/03/25 13:50:26;;;;;;;47.23;17.70;;;;;;;;;;6275683;28;20471;-63
2022/03/25 13:53:31;;;;;;;43.97;17.73;;;;;;;;;;6266967;28;20044;-58
2022/03/25 13:56:45;;;;;;;44.50;16.88;;;;;;;;;;6271505;28;20085;-64
2022/03/25 13:59:47;;;;;;;37.58;13.98;;;;;;;;;;6270339;28;20048;-65
2022/03/25 14:02:49;;;;;;;35.97;14.07;;;;;;;;;;6276403;28;20571;-58
2022/03/25 14:05:50;;;;;;;45.35;16.77;;;;;;;;;;6275580;28;20029;-58
2022/03/25 14:08:51;;;;;;;41.88;14.95;;;;;;;;;;6273634;28;20571;-60
2022/03/25 14:11:52;;;;;;;42.42;15.57;;;;;;;;;;6267373;28;20079;-62
2022/03/25 14:15:04;;;;;;;40.47;15.38;;;;;;;;;;6272379;28;20052;-64
2022/03/25 14:18:16;;;;;;;41.92;15.82;;;;;;;;;;6273043;28;20049;-58
2022/03/25 14:21:43;;;;;;;46.03;17.17;;;;;;;;;;6271265;28;20817;-58
2022/03/25 14:24:44;;;;;;;46.45;17.55;;;;;;;;;;6264551;28;20561;-59
2022/03/25 14:27:46;;;;;;;41.85;16.15;;;;;;;;;;6270767;28;20045;-62
2022/03/25 14:30:47;;;;;;;46.72;16.85;;;;;;;;;;6274098;28;20144;-63
2022/03/25 14:33:48;;;;;;;38.53;16.40;;;;;;;;;;6263490;28;20045;-58
2022/03/25 14:36:50;;;;;;;43.67;16.98;;;;;;;;;;6269190;28;20511;-65
2022/03/25 14:39:51;;;;;;;44.83;16.10;;;;;;;;;;6271707;28;20700;-68
2022/03/25 14:42:52;;;;;;;63.47;18.17;;;;;;;;;;6263464;28;20148;-60
2022/03/25 14:45:53;;;;;;;46.95;17.95;;;;;;;;;;6268669;28;20728;-60
2022/03/25 14:48:53;;;;;;;43.10;17.77;;;;;;;;;;6271970;28;20055;-59
2022/03/25 14:51:54;;;;;;;53.63;17.70;;;;;;;;;;6271776;28;20079;-60
2022/03/25 14:54:55;;;;;;;48.83;17.70;;;;;;;;;;6274882;28;20379;-59
2022/03/25 14:57:55;;;;;;;40.92;16.85;;;;;;;;;;6272510;28;20045;-59
2022/03/25 15:00:56;;;;;;;42.67;16.13;;;;;;;;;;6263170;28;20052;-65
2022/03/25 15:03:57;;;;;;;38.38;15.95;;;;;;;;;;6264002;28;20059;-63
2022/03/25 15:07:02;;;;;;;36.15;14.40;;;;;;;;;;6251403;28;20061;-61
2022/03/25 15:10:04;;;;;;;41.60;16.42;;;;;;;;;;6257973;28;20068;-59
2022/03/25 15:13:05;;;;;;;39.17;14.95;;;;;;;;;;6251249;28;20053;-62
2022/03/25 15:16:07;;;;;;;37.22;15.25;;;;;;;;;;6256649;28;20103;-66
2022/03/25 15:19:08;;;;;;;40.40;15.68;;;;;;;;;;6255524;28;20041;-58
2022/03/25 15:22:09;;;;;;;43.92;18.17;;;;;;;;;;6251749;28;20106;-67
2022/03/25 15:25:11;;;;;;;39.65;16.02;;;;;;;;;;6255117;28;20684;-60
2022/03/25 15:28:12;;;;;;;38.00;15.55;;;;;;;;;;6254944;28;20077;-61
2022/03/25 15:34:34;;;;;;;40.85;17.27;;;;;;;;;;6254149;28;20071;-57
2022/03/25 15:37:34;;;;;;;39.50;16.25;;;;;;;;;;6256789;28;20438;-56
2022/03/25 15:40:35;;;;;;;36.00;15.15;;;;;;;;;;6256327;28;20049;-61
2022/03/25 15:43:36;;;;;;;40.97;14.55;;;;;;;;;;6254689;28;20052;-59
2022/03/25 15:46:37;;;;;;;35.30;13.95;;;;;;;;;;6255709;28;20140;-56
2022/03/25 15:49:37;;;;;;;39.88;16.23;;;;;;;;;;6255338;28;20055;-58
2022/03/25 15:52:38;;;;;;;41.53;16.13;;;;;;;;;;6255709;28;20691;-58
2022/03/25 15:55:39;;;;;;;37.78;14.93;;;;;;;;;;6253798;28;20043;-59
2022/03/25 15:58:40;;;;;;;43.58;17.27;;;;;;;;;;6253045;28;20048;-58
2022/03/25 16:01:40;;;;;;;41.10;16.70;;;;;;;;;;6257302;28;20555;-58
2022/03/25 16:04:41;;;;;;;46.40;20.45;;;;;;;;;;6254939;28;20728;-62
2022/03/25 16:07:43;;;;;;;41.58;17.35;;;;;;;;;;6255102;28;20053;-59
2022/03/25 16:10:45;;;;;;;41.33;14.60;;;;;;;;;;6256521;28;20052;-57
2022/03/25 16:13:45;;;;;;;39.45;15.43;;;;;;;;;;6253013;28;20075;-58
2022/03/25 16:16:46;;;;;;;42.38;15.95;;;;;;;;;;6251975;28;20091;-57
2022/03/25 16:19:46;;;;;;;39.33;14.80;;;;;;;;;;6254585;28;20067;-61
2022/03/25 16:22:48;;;;;;;47.25;18.08;;;;;;;;;;6252385;28;20076;-62
2022/03/25 16:25:48;;;;;;;57.53;22.20;;;;;;;;;;6252124;28;20049;-58
2022/03/25 16:28:49;;;;;;;43.75;16.63;;;;;;;;;;6255779;28;20061;-59
2022/03/25 16:31:50;;;;;;;49.05;19.90;;;;;;;;;;6256335;28;20102;-61
2022/03/25 16:34:51;;;;;;;45.23;18.63;;;;;;;;;;6254449;28;20048;-60
2022/03/25 16:37:52;;;;;;;35.60;15.43;;;;;;;;;;6252115;28;20059;-62
2022/03/25 16:40:53;;;;;;;51.10;19.50;;;;;;;;;;6254495;28;20115;-65
2022/03/25 16:43:54;;;;;;;48.70;19.67;;;;;;;;;;6255135;28;20056;-64
2022/03/25 16:46:56;;;;;;;44.10;17.40;;;;;;;;;;6257155;28;20073;-66
2022/03/25 16:49:56;;;;;;;42.38;18.80;;;;;;;;;;6257685;28;20321;-59
2022/03/25 16:52:57;;;;;;;49.75;19.90;;;;;;;;;;6252932;28;20044;-59
2022/03/25 16:55:58;;;;;;;44.08;18.08;;;;;;;;;;6250986;28;20048;-57
2022/03/25 16:58:58;;;;;;;44.13;18.75;;;;;;;;;;6253413;28;20037;-62
2022/03/25 17:02:00;;;;;;;47.90;18.90;;;;;;;;;;6258534;28;20048;-55
2022/03/25 17:05:01;;;;;;;;;;;;;;;;;;6257605;28;20075;-60
2022/03/25 17:08:02;;;;;;;42.10;18.83;;;;;;;;;;6260009;28;20279;-63
2022/03/25 17:11:03;;;;;;;39.38;16.60;;;;;;;;;;6259061;28;20055;-60
2022/03/25 17:14:04;;;;;;;49.67;19.02;;;;;;;;;;6256127;28;20124;-60
2022/03/25 17:17:05;;;;;;;68.30;24.63;;;;;;;;;;6256782;28;20114;-62
2022/03/25 17:20:05;;;;;;;62.08;23.67;;;;;;;;;;6260362;28;20899;-66
2022/03/25 17:23:07;;;;;;;84.77;30.70;;;;;;;;;;6261073;28;20114;-66
2022/03/25 17:26:10;;;;;;;75.00;27.73;;;;;;;;;;6261809;28;20053;-61
2022/03/25 17:29:11;;;;;;;74.78;27.45;;;;;;;;;;6262105;28;20061;-62
2022/03/25 17:32:11;;;;;;;91.50;35.10;;;;;;;;;;6260470;28;20586;-58
2022/03/25 17:35:12;;;;;;;79.20;29.95;;;;;;;;;;6259424;28;20055;-62
2022/03/25 17:38:12;;;;;;;87.32;33.72;;;;;;;;;;6260045;28;20053;-63
2022/03/25 17:41:13;;;;;;;97.47;35.20;;;;;;;;;;6260743;28;20061;-55
2022/03/25 17:44:14;;;;;;;117.85;39.53;;;;;;;;;;6260138;28;20057;-64
2022/03/25 17:47:15;;;;;;;127.75;40.67;;;;;;;;;;6259223;28;20057;-59